sensor_id;sensor_type;location;lat;lon;timestamp;pressure;altitude;pressure_sealevel;temperature;humidity
7660;BME280;3872;47.902;8.162;2023-03-20T00:01:52;92061.34;;;6.01;100.00
7660;BME280;3872;47.902;8.162;2023-03-20T00:04:19;92062.00;;;5.30;100.00
7660;BME280;3872;47.902;8.162;2023-03-20T00:06:46;92063.78;;;5.20;100.00
7660;BME280;3872;47.902;8.162;2023-03-20T00:09:13;92062.41;;;6.00;100.00
7660;BME280;3872;47.902;8.162;2023-03-20T00:11:45;92065.78;;;6.36;100.00
7660;BME280;3872;47.902;8.162;2023-03-20T00:14:15;92067.34;;;6.37;100.00
7660;BME280;3872;47.902;8.162;2023-03-20T00:16:45;92072.84;;;6.30;100.00
7660;BME280;3872;47.902;8.162;2023-03-20T00:19:14;92076.75;;;6.12;100.00
7660;BME280;3872;47.902;8.162;2023-03-20T00:21:43;92075.91;;;5.76;100.00
7660;BME280;3872;47.902;8.162;2023-03-20T00:24:11;92072.53;;;5.66;100.00
7660;BME280;3872;47.902;8.162;2023-03-20T00:26:38;92068.88;;;5.77;100.00
7660;BME280;3872;47.902;8.162;2023-03-20T00:29:06;92063.22;;;5.07;100.00
7660;BME280;3872;47.902;8.162;2023-03-20T00:31:36;92077.72;;;5.56;100.00
7660;BME280;3872;47.902;8.162;2023-03-20T00:34:08;92078.28;;;5.73;100.00
7660;BME280;3872;47.902;8.162;2023-03-20T00:36:35;92068.41;;;6.05;100.00
7660;BME280;3872;47.902;8.162;2023-03-20T00:39:02;92074.97;;;6.18;100.00
7660;BME280;3872;47.902;8.162;2023-03-20T00:41:32;92069.47;;;6.24;100.00
7660;BME280;3872;47.902;8.162;2023-03-20T00:44:02;92062.41;;;6.30;100.00
7660;BME280;3872;47.902;8.162;2023-03-20T00:46:33;92075.72;;;6.44;100.00
7660;BME280;3872;47.902;8.162;2023-03-20T00:49:01;92073.91;;;6.39;100.00
7660;BME280;3872;47.902;8.162;2023-03-20T00:51:28;92084.59;;;6.27;100.00
7660;BME280;3872;47.902;8.162;2023-03-20T00:53:57;92079.91;;;6.19;100.00
7660;BME280;3872;47.902;8.162;2023-03-20T00:56:35;92081.72;;;6.44;100.00
7660;BME280;3872;47.902;8.162;2023-03-20T00:59:05;92078.06;;;6.45;100.00
7660;BME280;3872;47.902;8.162;2023-03-20T01:01:34;92083.81;;;6.52;100.00
7660;BME280;3872;47.902;8.162;2023-03-20T01:04:01;92075.97;;;6.47;100.00
7660;BME280;3872;47.902;8.162;2023-03-20T01:06:29;92077.81;;;6.37;100.00
7660;BME280;3872;47.902;8.162;2023-03-20T01:08:55;92069.47;;;6.24;100.00
7660;BME280;3872;47.902;8.162;2023-03-20T01:11:24;92081.34;;;5.49;100.00
7660;BME280;3872;47.902;8.162;2023-03-20T01:13:51;92074.25;;;5.30;100.00
7660;BME280;3872;47.902;8.162;2023-03-20T01:16:20;92076.50;;;6.14;100.00
7660;BME280;3872;47.902;8.162;2023-03-20T01:18:47;92073.88;;;6.44;100.00
7660;BME280;3872;47.902;8.162;2023-03-20T01:21:14;92069.72;;;6.28;100.00
7660;BME280;3872;47.902;8.162;2023-03-20T01:23:42;92068.91;;;6.33;100.00
7660;BME280;3872;47.902;8.162;2023-03-20T01:26:20;92079.38;;;6.33;100.00
7660;BME280;3872;47.902;8.162;2023-03-20T01:28:48;92070.44;;;6.79;100.00
7660;BME280;3872;47.902;8.162;2023-03-20T01:31:16;92072.78;;;6.71;100.00
7660;BME280;3872;47.902;8.162;2023-03-20T01:33:43;92068.63;;;6.64;100.00
7660;BME280;3872;47.902;8.162;2023-03-20T01:36:11;92074.38;;;5.75;100.00
7660;BME280;3872;47.902;8.162;2023-03-20T01:38:40;92073.88;;;6.44;100.00
7660;BME280;3872;47.902;8.162;2023-03-20T01:41:11;92074.94;;;6.43;100.00
7660;BME280;3872;47.902;8.162;2023-03-20T01:43:39;92076.75;;;6.53;100.00
7660;BME280;3872;47.902;8.162;2023-03-20T01:46:15;92086.44;;;6.37;100.00
7660;BME280;3872;47.902;8.162;2023-03-20T01:49:07;92082.78;;;6.33;100.00
7660;BME280;3872;47.902;8.162;2023-03-20T01:51:34;92081.72;;;6.59;100.00
7660;BME280;3872;47.902;8.162;2023-03-20T01:54:10;92079.34;;;6.63;100.00
7660;BME280;3872;47.902;8.162;2023-03-20T01:56:52;92078.78;;;6.86;100.00
7660;BME280;3872;47.902;8.162;2023-03-20T01:59:24;92080.09;;;6.84;100.00
7660;BME280;3872;47.902;8.162;2023-03-20T02:01:53;92084.56;;;6.73;100.00
7660;BME280;3872;47.902;8.162;2023-03-20T02:04:25;92085.84;;;6.81;100.00
7660;BME280;3872;47.902;8.162;2023-03-20T02:06:59;92082.00;;;6.07;100.00
7660;BME280;3872;47.902;8.162;2023-03-20T02:09:36;92078.81;;;6.71;100.00
7660;BME280;3872;47.902;8.162;2023-03-20T02:12:09;92081.34;;;7.01;100.00
7660;BME280;3872;47.902;8.162;2023-03-20T02:14:37;92081.31;;;7.17;100.00
7660;BME280;3872;47.902;8.162;2023-03-20T02:17:15;92082.13;;;7.07;100.00
7660;BME280;3872;47.902;8.162;2023-03-20T02:20:00;92084.06;;;6.41;100.00
7660;BME280;3872;47.902;8.162;2023-03-20T02:22:43;92079.00;;;7.00;100.00
7660;BME280;3872;47.902;8.162;2023-03-20T02:25:32;92071.88;;;7.11;100.00
7660;BME280;3872;47.902;8.162;2023-03-20T02:28:50;92080.31;;;6.97;100.00
7660;BME280;3872;47.902;8.162;2023-03-20T02:31:39;92087.94;;;6.89;100.00
7660;BME280;3872;47.902;8.162;2023-03-20T02:34:39;92093.19;;;6.68;100.00
7660;BME280;3872;47.902;8.162;2023-03-20T02:40:19;92096.75;;;7.13;100.00
7660;BME280;3872;47.902;8.162;2023-03-20T02:42:55;92097.00;;;7.22;100.00
7660;BME280;3872;47.902;8.162;2023-03-20T02:45:27;92089.63;;;7.29;100.00
7660;BME280;3872;47.902;8.162;2023-03-20T02:48:13;92097.06;;;7.01;100.00
7660;BME280;3872;47.902;8.162;2023-03-20T02:50:47;92087.59;;;7.11;100.00
7660;BME280;3872;47.902;8.162;2023-03-20T02:53:23;92088.38;;;7.11;100.00
7660;BME280;3872;47.902;8.162;2023-03-20T02:55:58;92097.00;;;7.17;100.00
7660;BME280;3872;47.902;8.162;2023-03-20T02:58:34;92095.06;;;6.22;100.00
7660;BME280;3872;47.902;8.162;2023-03-20T03:01:06;92097.94;;;6.41;100.00
7660;BME280;3872;47.902;8.162;2023-03-20T03:03:37;92103.69;;;6.33;100.00
7660;BME280;3872;47.902;8.162;2023-03-20T03:06:10;92098.84;;;7.16;100.00
7660;BME280;3872;47.902;8.162;2023-03-20T03:08:44;92106.41;;;7.18;100.00
7660;BME280;3872;47.902;8.162;2023-03-20T03:11:13;92109.13;;;6.87;100.00
7660;BME280;3872;47.902;8.162;2023-03-20T03:13:42;92105.03;;;7.40;100.00
7660;BME280;3872;47.902;8.162;2023-03-20T03:16:14;92115.16;;;6.73;100.00
7660;BME280;3872;47.902;8.162;2023-03-20T03:18:43;92106.44;;;7.13;100.00
7660;BME280;3872;47.902;8.162;2023-03-20T03:21:15;92117.63;;;7.38;100.00
7660;BME280;3872;47.902;8.162;2023-03-20T03:23:46;92117.81;;;7.47;100.00
7660;BME280;3872;47.902;8.162;2023-03-20T03:26:17;92117.06;;;7.41;100.00
7660;BME280;3872;47.902;8.162;2023-03-20T03:28:48;92110.03;;;7.37;100.00
7660;BME280;3872;47.902;8.162;2023-03-20T03:31:17;92115.72;;;7.49;100.00
7660;BME280;3872;47.902;8.162;2023-03-20T03:33:45;92117.44;;;7.10;100.00
7660;BME280;3872;47.902;8.162;2023-03-20T03:36:26;92117.31;;;7.40;100.00
7660;BME280;3872;47.902;8.162;2023-03-20T03:39:00;92117.69;;;7.13;100.00
7660;BME280;3872;47.902;8.162;2023-03-20T03:41:35;92118.47;;;7.14;100.00
7660;BME280;3872;47.902;8.162;2023-03-20T03:44:10;92124.09;;;7.51;100.00
7660;BME280;3872;47.902;8.162;2023-03-20T03:46:41;92125.31;;;7.69;100.00
7660;BME280;3872;47.902;8.162;2023-03-20T03:49:14;92122.94;;;7.77;100.00
7660;BME280;3872;47.902;8.162;2023-03-20T03:51:43;92128.50;;;7.66;100.00
7660;BME280;3872;47.902;8.162;2023-03-20T03:54:15;92127.41;;;7.72;100.00
7660;BME280;3872;47.902;8.162;2023-03-20T03:56:53;92134.72;;;7.80;100.00
7660;BME280;3872;47.902;8.162;2023-03-20T03:59:25;92127.69;;;7.70;100.00
7660;BME280;3872;47.902;8.162;2023-03-20T04:01:55;92136.63;;;7.64;100.00
7660;BME280;3872;47.902;8.162;2023-03-20T04:04:23;92136.94;;;7.53;100.00
7660;BME280;3872;47.902;8.162;2023-03-20T04:06:51;92126.34;;;6.98;100.00
7660;BME280;3872;47.902;8.162;2023-03-20T04:09:19;92128.84;;;7.39;100.00
7660;BME280;3872;47.902;8.162;2023-03-20T04:11:49;92129.53;;;7.65;100.00
7660;BME280;3872;47.902;8.162;2023-03-20T04:14:16;92131.09;;;7.71;100.00
7660;BME280;3872;47.902;8.162;2023-03-20T04:16:43;92134.56;;;7.56;100.00
7660;BME280;3872;47.902;8.162;2023-03-20T04:19:10;92132.59;;;7.82;100.00
7660;BME280;3872;47.902;8.162;2023-03-20T04:21:36;92136.44;;;8.00;100.00
7660;BME280;3872;47.902;8.162;2023-03-20T04:24:03;92127.13;;;7.78;100.00
7660;BME280;3872;47.902;8.162;2023-03-20T04:26:32;92123.16;;;7.86;100.00
7660;BME280;3872;47.902;8.162;2023-03-20T04:28:59;92123.38;;;7.90;100.00
7660;BME280;3872;47.902;8.162;2023-03-20T04:31:44;92125.91;;;8.05;100.00
7660;BME280;3872;47.902;8.162;2023-03-20T04:34:17;92126.19;;;8.03;100.00
7660;BME280;3872;47.902;8.162;2023-03-20T04:36:57;92124.28;;;8.14;100.00
7660;BME280;3872;47.902;8.162;2023-03-20T04:39:34;92123.16;;;7.86;100.00
7660;BME280;3872;47.902;8.162;2023-03-20T04:42:03;92119.66;;;8.01;100.00
7660;BME280;3872;47.902;8.162;2023-03-20T04:44:30;92125.00;;;8.24;100.00
7660;BME280;3872;47.902;8.162;2023-03-20T04:46:57;92123.66;;;8.37;100.00
7660;BME280;3872;47.902;8.162;2023-03-20T04:49:24;92123.06;;;8.40;100.00
7660;BME280;3872;47.902;8.162;2023-03-20T04:51:51;92131.84;;;8.20;100.00
7660;BME280;3872;47.902;8.162;2023-03-20T04:54:29;92129.97;;;7.82;100.00
7660;BME280;3872;47.902;8.162;2023-03-20T04:56:56;92127.44;;;8.11;100.00
7660;BME280;3872;47.902;8.162;2023-03-20T04:59:25;92130.06;;;7.67;100.00
7660;BME280;3872;47.902;8.162;2023-03-20T05:01:51;92127.75;;;7.55;100.00
7660;BME280;3872;47.902;8.162;2023-03-20T05:04:20;92133.47;;;8.16;100.00
7660;BME280;3872;47.902;8.162;2023-03-20T05:06:47;92142.69;;;8.04;100.00
7660;BME280;3872;47.902;8.162;2023-03-20T05:09:16;92147.84;;;7.70;100.00
7660;BME280;3872;47.902;8.162;2023-03-20T05:11:44;92154.06;;;8.33;100.00
7660;BME280;3872;47.902;8.162;2023-03-20T05:14:31;92161.69;;;8.30;100.00
7660;BME280;3872;47.902;8.162;2023-03-20T05:17:17;92161.28;;;8.07;100.00
7660;BME280;3872;47.902;8.162;2023-03-20T05:20:06;92163.56;;;8.24;100.00
7660;BME280;3872;47.902;8.162;2023-03-20T05:22:50;92158.41;;;8.09;100.00
7660;BME280;3872;47.902;8.162;2023-03-20T05:25:41;92140.34;;;8.02;100.00
7660;BME280;3872;47.902;8.162;2023-03-20T05:28:30;92135.66;;;8.43;100.00
7660;BME280;3872;47.902;8.162;2023-03-20T05:31:18;92129.63;;;8.43;100.00
7660;BME280;3872;47.902;8.162;2023-03-20T05:33:54;92125.84;;;8.54;100.00
7660;BME280;3872;47.902;8.162;2023-03-20T05:36:47;92137.56;;;8.33;100.00
7660;BME280;3872;47.902;8.162;2023-03-20T05:39:37;92148.09;;;7.68;100.00
7660;BME280;3872;47.902;8.162;2023-03-20T05:42:26;92155.84;;;7.94;100.00
7660;BME280;3872;47.902;8.162;2023-03-20T05:45:14;92154.88;;;8.29;100.00
7660;BME280;3872;47.902;8.162;2023-03-20T05:48:07;92159.47;;;8.47;100.00
7660;BME280;3872;47.902;8.162;2023-03-20T05:50:40;92156.94;;;8.37;100.00
7660;BME280;3872;47.902;8.162;2023-03-20T05:53:14;92151.53;;;8.57;100.00
7660;BME280;3872;47.902;8.162;2023-03-20T05:55:50;92162.41;;;8.40;100.00
7660;BME280;3872;47.902;8.162;2023-03-20T05:58:43;92168.81;;;8.63;100.00
7660;BME280;3872;47.902;8.162;2023-03-20T06:01:25;92177.06;;;8.46;100.00
7660;BME280;3872;47.902;8.162;2023-03-20T06:04:05;92177.25;;;8.55;100.00
7660;BME280;3872;47.902;8.162;2023-03-20T06:06:51;92164.81;;;8.37;100.00
7660;BME280;3872;47.902;8.162;2023-03-20T06:09:18;92164.72;;;8.47;100.00
7660;BME280;3872;47.902;8.162;2023-03-20T06:11:45;92163.16;;;8.46;100.00
7660;BME280;3872;47.902;8.162;2023-03-20T06:14:14;92172.00;;;8.55;100.00
7660;BME280;3872;47.902;8.162;2023-03-20T06:16:44;92168.53;;;8.64;100.00
7660;BME280;3872;47.902;8.162;2023-03-20T06:19:13;92174.69;;;8.50;100.00
7660;BME280;3872;47.902;8.162;2023-03-20T06:21:40;92173.84;;;8.54;100.00
7660;BME280;3872;47.902;8.162;2023-03-20T06:24:10;92172.47;;;8.62;100.00
7660;BME280;3872;47.902;8.162;2023-03-20T06:26:37;92178.72;;;8.71;100.00
7660;BME280;3872;47.902;8.162;2023-03-20T06:29:08;92181.69;;;8.59;100.00
7660;BME280;3872;47.902;8.162;2023-03-20T06:31:35;92187.22;;;8.58;100.00
7660;BME280;3872;47.902;8.162;2023-03-20T06:34:03;92189.78;;;8.63;100.00
7660;BME280;3872;47.902;8.162;2023-03-20T06:36:36;92177.03;;;8.51;100.00
7660;BME280;3872;47.902;8.162;2023-03-20T06:39:08;92181.97;;;8.58;100.00
7660;BME280;3872;47.902;8.162;2023-03-20T06:41:35;92188.69;;;8.69;100.00
7660;BME280;3872;47.902;8.162;2023-03-20T06:44:06;92180.25;;;8.77;100.00
7660;BME280;3872;47.902;8.162;2023-03-20T06:47:01;92185.50;;;8.77;100.00
7660;BME280;3872;47.902;8.162;2023-03-20T06:49:29;92176.19;;;8.95;100.00
7660;BME280;3872;47.902;8.162;2023-03-20T06:51:56;92191.09;;;8.99;100.00
7660;BME280;3872;47.902;8.162;2023-03-20T06:54:24;92186.50;;;8.81;100.00
7660;BME280;3872;47.902;8.162;2023-03-20T06:56:50;92192.41;;;8.24;100.00
7660;BME280;3872;47.902;8.162;2023-03-20T06:59:19;92199.69;;;8.37;100.00
7660;BME280;3872;47.902;8.162;2023-03-20T07:01:46;92190.53;;;8.74;100.00
7660;BME280;3872;47.902;8.162;2023-03-20T07:04:13;92197.84;;;9.06;100.00
7660;BME280;3872;47.902;8.162;2023-03-20T07:06:46;92191.69;;;9.20;100.00
7660;BME280;3872;47.902;8.162;2023-03-20T07:09:14;92186.88;;;9.27;100.00
7660;BME280;3872;47.902;8.162;2023-03-20T07:11:42;92185.00;;;9.33;100.00
7660;BME280;3872;47.902;8.162;2023-03-20T07:14:09;92177.41;;;9.55;100.00
7660;BME280;3872;47.902;8.162;2023-03-20T07:16:50;92173.16;;;9.59;100.00
7660;BME280;3872;47.902;8.162;2023-03-20T07:19:17;92186.44;;;8.91;100.00
7660;BME280;3872;47.902;8.162;2023-03-20T07:21:48;92199.69;;;8.27;100.00
7660;BME280;3872;47.902;8.162;2023-03-20T07:24:17;92198.91;;;9.04;100.00
7660;BME280;3872;47.902;8.162;2023-03-20T07:26:44;92200.09;;;9.46;100.00
7660;BME280;3872;47.902;8.162;2023-03-20T07:29:10;92196.28;;;9.33;100.00
7660;BME280;3872;47.902;8.162;2023-03-20T07:31:38;92196.25;;;8.76;100.00
7660;BME280;3872;47.902;8.162;2023-03-20T07:34:09;92203.16;;;9.00;100.00
7660;BME280;3872;47.902;8.162;2023-03-20T07:36:36;92200.63;;;7.97;100.00
7660;BME280;3872;47.902;8.162;2023-03-20T07:39:03;92208.78;;;8.84;100.00
7660;BME280;3872;47.902;8.162;2023-03-20T07:41:32;92202.19;;;9.20;100.00
7660;BME280;3872;47.902;8.162;2023-03-20T07:44:04;92212.59;;;9.30;100.00
7660;BME280;3872;47.902;8.162;2023-03-20T07:46:47;92211.09;;;9.48;100.00
7660;BME280;3872;47.902;8.162;2023-03-20T07:49:15;92227.25;;;8.74;100.00
7660;BME280;3872;47.902;8.162;2023-03-20T07:51:44;92222.78;;;9.08;100.00
7660;BME280;3872;47.902;8.162;2023-03-20T07:54:10;92223.03;;;9.64;100.00
7660;BME280;3872;47.902;8.162;2023-03-20T07:56:38;92222.28;;;9.35;100.00
7660;BME280;3872;47.902;8.162;2023-03-20T07:59:05;92216.31;;;9.77;100.00
7660;BME280;3872;47.902;8.162;2023-03-20T08:01:32;92230.38;;;8.32;100.00
7660;BME280;3872;47.902;8.162;2023-03-20T08:03:58;92225.00;;;7.98;100.00
7660;BME280;3872;47.902;8.162;2023-03-20T08:06:25;92216.75;;;9.08;100.00
7660;BME280;3872;47.902;8.162;2023-03-20T08:08:51;92218.78;;;9.16;100.00
7660;BME280;3872;47.902;8.162;2023-03-20T08:11:18;92220.28;;;9.98;100.00
7660;BME280;3872;47.902;8.162;2023-03-20T08:13:46;92218.78;;;9.92;100.00
7660;BME280;3872;47.902;8.162;2023-03-20T08:16:13;92228.84;;;9.61;100.00
7660;BME280;3872;47.902;8.162;2023-03-20T08:18:39;92226.38;;;8.83;100.00
7660;BME280;3872;47.902;8.162;2023-03-20T08:21:07;92207.94;;;9.99;100.00
7660;BME280;3872;47.902;8.162;2023-03-20T08:23:34;92213.25;;;10.17;100.00
7660;BME280;3872;47.902;8.162;2023-03-20T08:26:00;92220.38;;;9.40;100.00
7660;BME280;3872;47.902;8.162;2023-03-20T08:28:27;92223.78;;;9.94;100.00
7660;BME280;3872;47.902;8.162;2023-03-20T08:30:55;92217.94;;;9.97;100.00
7660;BME280;3872;47.902;8.162;2023-03-20T08:33:21;92224.25;;;10.19;100.00
7660;BME280;3872;47.902;8.162;2023-03-20T08:35:54;92231.66;;;10.17;100.00
7660;BME280;3872;47.902;8.162;2023-03-20T08:38:21;92228.00;;;10.13;100.00
7660;BME280;3872;47.902;8.162;2023-03-20T08:40:47;92222.63;;;10.24;100.00
7660;BME280;3872;47.902;8.162;2023-03-20T08:43:14;92223.22;;;9.73;100.00
7660;BME280;3872;47.902;8.162;2023-03-20T08:45:40;92215.69;;;10.33;100.00
7660;BME280;3872;47.902;8.162;2023-03-20T08:48:09;92234.88;;;8.70;100.00
7660;BME280;3872;47.902;8.162;2023-03-20T08:50:35;92236.13;;;9.40;100.00
7660;BME280;3872;47.902;8.162;2023-03-20T08:53:02;92229.75;;;9.99;100.00
7660;BME280;3872;47.902;8.162;2023-03-20T08:55:28;92236.53;;;9.24;100.00
7660;BME280;3872;47.902;8.162;2023-03-20T08:57:55;92238.16;;;8.47;100.00
7660;BME280;3872;47.902;8.162;2023-03-20T09:00:22;92233.16;;;8.89;100.00
7660;BME280;3872;47.902;8.162;2023-03-20T09:02:49;92221.34;;;9.97;100.00
7660;BME280;3872;47.902;8.162;2023-03-20T09:05:17;92220.84;;;10.19;100.00
7660;BME280;3872;47.902;8.162;2023-03-20T09:07:44;92215.72;;;10.51;100.00
7660;BME280;3872;47.902;8.162;2023-03-20T09:10:11;92216.25;;;10.48;100.00
7660;BME280;3872;47.902;8.162;2023-03-20T09:12:38;92216.44;;;9.91;100.00
7660;BME280;3872;47.902;8.162;2023-03-20T09:15:06;92232.69;;;8.82;100.00
7660;BME280;3872;47.902;8.162;2023-03-20T09:17:32;92239.19;;;8.90;100.00
7660;BME280;3872;47.902;8.162;2023-03-20T09:19:59;92233.44;;;9.98;100.00
7660;BME280;3872;47.902;8.162;2023-03-20T09:22:27;92221.94;;;10.37;100.00
7660;BME280;3872;47.902;8.162;2023-03-20T09:24:53;92225.72;;;10.49;100.00
7660;BME280;3872;47.902;8.162;2023-03-20T09:27:20;92219.53;;;11.10;100.00
7660;BME280;3872;47.902;8.162;2023-03-20T09:29:46;92220.75;;;11.18;100.00
7660;BME280;3872;47.902;8.162;2023-03-20T09:32:14;92225.41;;;11.53;100.00
7660;BME280;3872;47.902;8.162;2023-03-20T09:34:40;92222.47;;;11.41;100.00
7660;BME280;3872;47.902;8.162;2023-03-20T09:37:07;92224.00;;;11.74;100.00
7660;BME280;3872;47.902;8.162;2023-03-20T09:39:35;92222.84;;;11.94;100.00
7660;BME280;3872;47.902;8.162;2023-03-20T09:42:07;92228.69;;;12.32;100.00
7660;BME280;3872;47.902;8.162;2023-03-20T09:44:48;92231.03;;;12.83;100.00
7660;BME280;3872;47.902;8.162;2023-03-20T09:47:22;92230.28;;;12.20;100.00
7660;BME280;3872;47.902;8.162;2023-03-20T09:50:04;92234.81;;;12.55;100.00
7660;BME280;3872;47.902;8.162;2023-03-20T09:52:37;92228.22;;;12.16;100.00
7660;BME280;3872;47.902;8.162;2023-03-20T09:55:12;92237.44;;;13.05;87.19
7660;BME280;3872;47.902;8.162;2023-03-20T09:57:40;92234.13;;;11.21;100.00
7660;BME280;3872;47.902;8.162;2023-03-20T10:00:12;92243.97;;;11.48;93.56
7660;BME280;3872;47.902;8.162;2023-03-20T10:02:45;92231.53;;;12.22;92.87
7660;BME280;3872;47.902;8.162;2023-03-20T10:05:20;92228.81;;;12.77;93.76
7660;BME280;3872;47.902;8.162;2023-03-20T10:07:48;92214.94;;;12.93;83.69
7660;BME280;3872;47.902;8.162;2023-03-20T10:10:17;92219.34;;;12.98;81.42
7660;BME280;3872;47.902;8.162;2023-03-20T10:12:51;92224.47;;;12.45;81.49
7660;BME280;3872;47.902;8.162;2023-03-20T10:15:36;92230.84;;;12.80;77.03
7660;BME280;3872;47.902;8.162;2023-03-20T10:18:12;92228.72;;;12.68;84.69
7660;BME280;3872;47.902;8.162;2023-03-20T10:20:45;92233.47;;;10.59;98.89
7660;BME280;3872;47.902;8.162;2023-03-20T10:23:19;92238.38;;;11.36;95.59
7660;BME280;3872;47.902;8.162;2023-03-20T10:25:53;92234.75;;;12.33;87.96
7660;BME280;3872;47.902;8.162;2023-03-20T10:28:24;92236.59;;;10.80;100.00
7660;BME280;3872;47.902;8.162;2023-03-20T10:31:00;92234.63;;;12.51;87.83
7660;BME280;3872;47.902;8.162;2023-03-20T10:33:41;92240.94;;;11.55;96.14
7660;BME280;3872;47.902;8.162;2023-03-20T10:36:25;92235.66;;;12.78;82.50
7660;BME280;3872;47.902;8.162;2023-03-20T10:39:01;92227.94;;;12.04;84.51
7660;BME280;3872;47.902;8.162;2023-03-20T10:41:34;92228.34;;;12.61;77.71
7660;BME280;3872;47.902;8.162;2023-03-20T10:44:04;92230.84;;;12.30;84.53
7660;BME280;3872;47.902;8.162;2023-03-20T10:46:34;92233.84;;;12.87;79.86
7660;BME280;3872;47.902;8.162;2023-03-20T10:49:08;92235.53;;;13.19;75.44
7660;BME280;3872;47.902;8.162;2023-03-20T10:51:41;92232.56;;;12.98;76.04
7660;BME280;3872;47.902;8.162;2023-03-20T10:54:20;92237.97;;;10.78;100.00
7660;BME280;3872;47.902;8.162;2023-03-20T10:56:51;92239.81;;;12.57;80.85
7660;BME280;3872;47.902;8.162;2023-03-20T10:59:22;92233.81;;;12.78;76.23
7660;BME280;3872;47.902;8.162;2023-03-20T11:01:49;92245.50;;;11.17;95.13
7660;BME280;3872;47.902;8.162;2023-03-20T11:04:16;92241.69;;;11.09;96.86
7660;BME280;3872;47.902;8.162;2023-03-20T11:06:47;92229.28;;;12.43;84.22
7660;BME280;3872;47.902;8.162;2023-03-20T11:09:19;92243.63;;;11.04;97.68
7660;BME280;3872;47.902;8.162;2023-03-20T11:11:50;92234.59;;;11.56;95.45
7660;BME280;3872;47.902;8.162;2023-03-20T11:14:19;92238.13;;;12.61;88.06
7660;BME280;3872;47.902;8.162;2023-03-20T11:16:48;92239.97;;;12.74;83.71
7660;BME280;3872;47.902;8.162;2023-03-20T11:19:18;92248.94;;;12.09;85.19
7660;BME280;3872;47.902;8.162;2023-03-20T11:21:47;92248.78;;;12.69;80.99
7660;BME280;3872;47.902;8.162;2023-03-20T11:24:24;92248.22;;;11.76;89.66
7660;BME280;3872;47.902;8.162;2023-03-20T11:26:53;92244.44;;;12.24;87.00
7660;BME280;3872;47.902;8.162;2023-03-20T11:29:25;92243.75;;;11.58;99.97
7660;BME280;3872;47.902;8.162;2023-03-20T11:32:02;92249.81;;;10.14;100.00
7660;BME280;3872;47.902;8.162;2023-03-20T11:34:30;92246.91;;;10.58;100.00
7660;BME280;3872;47.902;8.162;2023-03-20T11:36:59;92236.22;;;11.84;100.00
7660;BME280;3872;47.902;8.162;2023-03-20T11:39:28;92239.13;;;11.04;100.00
7660;BME280;3872;47.902;8.162;2023-03-20T11:41:59;92246.00;;;12.88;96.57
7660;BME280;3872;47.902;8.162;2023-03-20T11:44:27;92232.19;;;14.28;79.20
7660;BME280;3872;47.902;8.162;2023-03-20T11:46:56;92232.31;;;12.50;90.03
7660;BME280;3872;47.902;8.162;2023-03-20T11:49:24;92227.66;;;12.69;87.85
7660;BME280;3872;47.902;8.162;2023-03-20T11:51:52;92235.56;;;11.60;93.56
7660;BME280;3872;47.902;8.162;2023-03-20T11:54:23;92226.03;;;13.40;82.92
7660;BME280;3872;47.902;8.162;2023-03-20T11:56:52;92220.66;;;14.72;71.65
7660;BME280;3872;47.902;8.162;2023-03-20T11:59:21;92234.28;;;12.80;80.84
7660;BME280;3872;47.902;8.162;2023-03-20T12:01:49;92235.53;;;14.03;76.18
7660;BME280;3872;47.902;8.162;2023-03-20T12:04:18;92230.00;;;14.78;70.89
7660;BME280;3872;47.902;8.162;2023-03-20T12:06:48;92219.25;;;15.09;64.36
7660;BME280;3872;47.902;8.162;2023-03-20T12:09:25;92229.56;;;13.58;72.28
7660;BME280;3872;47.902;8.162;2023-03-20T12:11:56;92218.31;;;15.22;63.81
7660;BME280;3872;47.902;8.162;2023-03-20T12:14:29;92220.94;;;14.05;70.40
7660;BME280;3872;47.902;8.162;2023-03-20T12:17:09;92204.09;;;14.58;66.59
7660;BME280;3872;47.902;8.162;2023-03-20T12:19:41;92214.13;;;14.70;66.74
7660;BME280;3872;47.902;8.162;2023-03-20T12:22:15;92208.81;;;14.13;68.18
7660;BME280;3872;47.902;8.162;2023-03-20T12:24:54;92209.09;;;13.63;69.54
7660;BME280;3872;47.902;8.162;2023-03-20T12:27:27;92206.66;;;14.24;68.29
7660;BME280;3872;47.902;8.162;2023-03-20T12:29:59;92209.78;;;13.86;69.94
7660;BME280;3872;47.902;8.162;2023-03-20T12:32:33;92204.97;;;14.36;68.21
7660;BME280;3872;47.902;8.162;2023-03-20T12:35:04;92206.38;;;14.34;67.19
7660;BME280;3872;47.902;8.162;2023-03-20T12:37:34;92201.00;;;12.79;75.01
7660;BME280;3872;47.902;8.162;2023-03-20T12:40:01;92192.81;;;14.35;63.23
7660;BME280;3872;47.902;8.162;2023-03-20T12:42:38;92186.81;;;14.78;64.49
7660;BME280;3872;47.902;8.162;2023-03-20T12:45:12;92195.25;;;15.14;61.57
7660;BME280;3872;47.902;8.162;2023-03-20T12:47:53;92184.66;;;14.54;62.47
7660;BME280;3872;47.902;8.162;2023-03-20T12:50:27;92186.50;;;14.71;57.58
7660;BME280;3872;47.902;8.162;2023-03-20T12:53:04;92190.63;;;12.61;67.21
7660;BME280;3872;47.902;8.162;2023-03-20T12:55:44;92193.38;;;13.67;65.52
7660;BME280;3872;47.902;8.162;2023-03-20T12:58:23;92186.53;;;12.54;69.32
7660;BME280;3872;47.902;8.162;2023-03-20T13:00:59;92191.94;;;11.08;79.59
7660;BME280;3872;47.902;8.162;2023-03-20T13:03:37;92187.94;;;12.25;69.84
7660;BME280;3872;47.902;8.162;2023-03-20T13:06:13;92179.97;;;13.10;64.10
7660;BME280;3872;47.902;8.162;2023-03-20T13:08:56;92181.09;;;12.24;68.52
7660;BME280;3872;47.902;8.162;2023-03-20T13:11:30;92177.38;;;13.41;62.08
7660;BME280;3872;47.902;8.162;2023-03-20T13:14:04;92173.22;;;14.28;63.69
7660;BME280;3872;47.902;8.162;2023-03-20T13:16:44;92171.41;;;15.06;56.76
7660;BME280;3872;47.902;8.162;2023-03-20T13:19:19;92172.28;;;15.53;54.52
7660;BME280;3872;47.902;8.162;2023-03-20T13:21:54;92158.63;;;17.10;51.04
7660;BME280;3872;47.902;8.162;2023-03-20T13:24:29;92163.16;;;14.90;54.10
7660;BME280;3872;47.902;8.162;2023-03-20T13:27:01;92176.34;;;13.20;63.14
7660;BME280;3872;47.902;8.162;2023-03-20T13:29:40;92156.75;;;14.39;59.66
7660;BME280;3872;47.902;8.162;2023-03-20T13:32:17;92146.84;;;15.60;54.11
7660;BME280;3872;47.902;8.162;2023-03-20T13:35:07;92142.78;;;15.46;54.11
7660;BME280;3872;47.902;8.162;2023-03-20T13:37:43;92135.22;;;16.12;53.73
7660;BME280;3872;47.902;8.162;2023-03-20T13:40:14;92135.03;;;15.87;53.66
7660;BME280;3872;47.902;8.162;2023-03-20T13:42:49;92127.72;;;15.84;52.04
7660;BME280;3872;47.902;8.162;2023-03-20T13:45:25;92136.19;;;16.57;49.55
7660;BME280;3872;47.902;8.162;2023-03-20T13:47:57;92126.88;;;16.22;48.38
7660;BME280;3872;47.902;8.162;2023-03-20T13:50:34;92121.53;;;16.01;49.67